CEB4 weather

Rockyford/Early Bird Air Airport
Rockyford, Alberta, Canada

Public forecast

Using degrees Celsius for public forecast. Weather courtesy of forecast.io.

METAR (pilot weather report)

Closest report is Calgary International Airport, 28.2 nm (52.2 km) W. Retrieved 2019/09/21 11:00 UTC (1 hour ago):

CYYC 211100Z VRB02KT 15SM FEW200 05/04 A2996 RMK CI1 CI TR SLP168

TAF (pilot weather forecast)

Closest forecast is Calgary International Airport, 28.2 nm (52.2 km) W. Retrieved 2019/09/21 12:42 UTC (0 seconds ago):

TAF CYYC 211139Z 2112/2212 VRB03KT P6SM FEW200 PROB30 2112/2114 2SM BR FM211400 28008KT P6SM SCT120 TEMPO 2114/2120 BKN120 FM212000 30010KT P6SM BKN060 BKN120 BECMG 2122/2124 16010KT FM220000 16010KT P6SM FEW120 BECMG 2201/2203 22008KT BECMG 2206/2208 26008KT RMK NXT FCST BY 211500Z